sensor_id;sensor_type;location;lat;lon;timestamp;pressure;altitude;pressure_sealevel;temperature;humidity
55610;BME280;41486;52.502;13.486;2023-03-15T00:01:02;100142.72;;;2.23;98.52
55610;BME280;41486;52.502;13.486;2023-03-15T00:03:30;100154.88;;;2.22;100.00
55610;BME280;41486;52.502;13.486;2023-03-15T00:06:03;100156.56;;;2.23;100.00
55610;BME280;41486;52.502;13.486;2023-03-15T00:08:31;100160.53;;;2.30;100.00
55610;BME280;41486;52.502;13.486;2023-03-15T00:11:01;100169.31;;;2.10;100.00
55610;BME280;41486;52.502;13.486;2023-03-15T00:13:29;100166.41;;;2.16;100.00
55610;BME280;41486;52.502;13.486;2023-03-15T00:16:01;100169.13;;;2.13;99.93
55610;BME280;41486;52.502;13.486;2023-03-15T00:18:29;100170.91;;;2.13;100.00
55610;BME280;41486;52.502;13.486;2023-03-15T00:20:57;100181.38;;;2.11;100.00
55610;BME280;41486;52.502;13.486;2023-03-15T00:23:25;100184.22;;;2.24;100.00
55610;BME280;41486;52.502;13.486;2023-03-15T00:25:54;100181.50;;;2.08;99.33
55610;BME280;41486;52.502;13.486;2023-03-15T00:28:23;100192.66;;;2.10;99.80
55610;BME280;41486;52.502;13.486;2023-03-15T00:31:02;100206.41;;;2.12;100.00
55610;BME280;41486;52.502;13.486;2023-03-15T00:33:30;100194.94;;;2.16;100.00
55610;BME280;41486;52.502;13.486;2023-03-15T00:36:02;100202.34;;;2.07;100.00
55610;BME280;41486;52.502;13.486;2023-03-15T00:38:32;100211.03;;;2.05;100.00
55610;BME280;41486;52.502;13.486;2023-03-15T00:41:03;100210.75;;;2.12;100.00
55610;BME280;41486;52.502;13.486;2023-03-15T00:43:33;100214.03;;;2.15;100.00
55610;BME280;41486;52.502;13.486;2023-03-15T00:46:03;100223.22;;;2.23;100.00
55610;BME280;41486;52.502;13.486;2023-03-15T00:48:32;100228.22;;;2.08;98.49
55610;BME280;41486;52.502;13.486;2023-03-15T00:51:05;100225.50;;;2.11;100.00
55610;BME280;41486;52.502;13.486;2023-03-15T00:53:37;100236.34;;;2.00;99.16
55610;BME280;41486;52.502;13.486;2023-03-15T00:56:08;100240.28;;;2.09;100.00
55610;BME280;41486;52.502;13.486;2023-03-15T00:58:38;100240.44;;;2.06;99.14
55610;BME280;41486;52.502;13.486;2023-03-15T01:01:07;100240.59;;;2.03;98.87
55610;BME280;41486;52.502;13.486;2023-03-15T01:03:37;100238.75;;;2.05;100.00
55610;BME280;41486;52.502;13.486;2023-03-15T01:06:06;100243.41;;;1.98;100.00
55610;BME280;41486;52.502;13.486;2023-03-15T01:08:34;100251.75;;;1.86;99.48
55610;BME280;41486;52.502;13.486;2023-03-15T01:11:03;100243.13;;;1.85;100.00
55610;BME280;41486;52.502;13.486;2023-03-15T01:13:31;100243.63;;;1.75;100.00
55610;BME280;41486;52.502;13.486;2023-03-15T01:16:00;100259.88;;;1.97;100.00
55610;BME280;41486;52.502;13.486;2023-03-15T01:18:29;100255.94;;;1.88;100.00
55610;BME280;41486;52.502;13.486;2023-03-15T01:20:57;100263.59;;;1.92;100.00
55610;BME280;41486;52.502;13.486;2023-03-15T01:23:25;100267.69;;;1.78;100.00
55610;BME280;41486;52.502;13.486;2023-03-15T01:25:53;100274.34;;;1.84;100.00
55610;BME280;41486;52.502;13.486;2023-03-15T01:28:21;100279.88;;;1.95;100.00
55610;BME280;41486;52.502;13.486;2023-03-15T01:30:49;100268.00;;;1.89;100.00
55610;BME280;41486;52.502;13.486;2023-03-15T01:33:19;100273.41;;;1.66;100.00
55610;BME280;41486;52.502;13.486;2023-03-15T01:35:48;100275.38;;;1.80;100.00
55610;BME280;41486;52.502;13.486;2023-03-15T01:38:24;100287.56;;;1.78;100.00
55610;BME280;41486;52.502;13.486;2023-03-15T01:40:52;100278.25;;;1.73;100.00
55610;BME280;41486;52.502;13.486;2023-03-15T01:43:21;100286.13;;;1.72;100.00
55610;BME280;41486;52.502;13.486;2023-03-15T01:46:05;100280.28;;;1.67;100.00
55610;BME280;41486;52.502;13.486;2023-03-15T01:48:42;100295.75;;;1.49;100.00
55610;BME280;41486;52.502;13.486;2023-03-15T01:51:21;100303.13;;;1.58;100.00
55610;BME280;41486;52.502;13.486;2023-03-15T01:53:52;100295.91;;;1.65;100.00
55610;BME280;41486;52.502;13.486;2023-03-15T01:56:22;100300.22;;;1.66;100.00
55610;BME280;41486;52.502;13.486;2023-03-15T01:58:51;100288.72;;;1.72;100.00
55610;BME280;41486;52.502;13.486;2023-03-15T02:01:21;100288.63;;;1.54;100.00
55610;BME280;41486;52.502;13.486;2023-03-15T02:03:55;100297.03;;;1.60;100.00
55610;BME280;41486;52.502;13.486;2023-03-15T02:06:29;100301.72;;;1.51;100.00
55610;BME280;41486;52.502;13.486;2023-03-15T02:09:02;100306.19;;;1.48;100.00
55610;BME280;41486;52.502;13.486;2023-03-15T02:11:35;100301.59;;;1.54;100.00
55610;BME280;41486;52.502;13.486;2023-03-15T02:14:04;100304.09;;;1.56;100.00
55610;BME280;41486;52.502;13.486;2023-03-15T02:16:37;100302.78;;;1.47;100.00
55610;BME280;41486;52.502;13.486;2023-03-15T02:19:19;100310.94;;;1.38;100.00
55610;BME280;41486;52.502;13.486;2023-03-15T02:21:59;100316.53;;;1.29;100.00
55610;BME280;41486;52.502;13.486;2023-03-15T02:24:36;100314.25;;;1.21;100.00
55610;BME280;41486;52.502;13.486;2023-03-15T02:27:05;100322.34;;;1.34;100.00
55610;BME280;41486;52.502;13.486;2023-03-15T02:29:37;100309.72;;;1.26;100.00
55610;BME280;41486;52.502;13.486;2023-03-15T02:32:05;100326.56;;;1.16;100.00
55610;BME280;41486;52.502;13.486;2023-03-15T02:34:33;100332.13;;;1.06;100.00
55610;BME280;41486;52.502;13.486;2023-03-15T02:37:01;100332.28;;;1.03;100.00
55610;BME280;41486;52.502;13.486;2023-03-15T02:39:29;100322.94;;;0.99;100.00
55610;BME280;41486;52.502;13.486;2023-03-15T02:41:58;100338.69;;;0.94;100.00
55610;BME280;41486;52.502;13.486;2023-03-15T02:44:29;100341.53;;;0.88;100.00
55610;BME280;41486;52.502;13.486;2023-03-15T02:47:03;100351.44;;;0.99;100.00
55610;BME280;41486;52.502;13.486;2023-03-15T02:49:35;100346.97;;;1.03;100.00
55610;BME280;41486;52.502;13.486;2023-03-15T02:52:07;100349.28;;;0.88;100.00
55610;BME280;41486;52.502;13.486;2023-03-15T02:54:35;100351.44;;;0.99;100.00
55610;BME280;41486;52.502;13.486;2023-03-15T02:57:07;100352.78;;;0.87;100.00
55610;BME280;41486;52.502;13.486;2023-03-15T02:59:35;100359.66;;;0.88;100.00
55610;BME280;41486;52.502;13.486;2023-03-15T03:02:04;100363.03;;;0.90;100.00
55610;BME280;41486;52.502;13.486;2023-03-15T03:04:33;100379.25;;;0.73;100.00
55610;BME280;41486;52.502;13.486;2023-03-15T03:07:01;100379.75;;;0.61;100.00
55610;BME280;41486;52.502;13.486;2023-03-15T03:09:37;100378.34;;;0.74;100.00
55610;BME280;41486;52.502;13.486;2023-03-15T03:12:06;100379.97;;;0.55;100.00
55610;BME280;41486;52.502;13.486;2023-03-15T03:14:34;100387.69;;;0.56;100.00
55610;BME280;41486;52.502;13.486;2023-03-15T03:17:05;100383.13;;;0.63;100.00
55610;BME280;41486;52.502;13.486;2023-03-15T03:19:33;100388.50;;;0.57;100.00
55610;BME280;41486;52.502;13.486;2023-03-15T03:22:01;100382.13;;;0.43;100.00
55610;BME280;41486;52.502;13.486;2023-03-15T03:24:29;100390.06;;;0.39;100.00
55610;BME280;41486;52.502;13.486;2023-03-15T03:26:58;100396.94;;;0.40;100.00
55610;BME280;41486;52.502;13.486;2023-03-15T03:29:29;100389.00;;;0.44;100.00
55610;BME280;41486;52.502;13.486;2023-03-15T03:32:00;100398.41;;;0.47;100.00
55610;BME280;41486;52.502;13.486;2023-03-15T03:34:29;100405.72;;;0.59;100.00
55610;BME280;41486;52.502;13.486;2023-03-15T03:36:57;100411.53;;;0.65;100.00
55610;BME280;41486;52.502;13.486;2023-03-15T03:39:44;100407.00;;;0.70;100.00
55610;BME280;41486;52.502;13.486;2023-03-15T03:42:12;100399.78;;;0.78;100.00
55610;BME280;41486;52.502;13.486;2023-03-15T03:44:41;100410.16;;;0.78;100.00
55610;BME280;41486;52.502;13.486;2023-03-15T03:47:09;100410.94;;;0.80;100.00
55610;BME280;41486;52.502;13.486;2023-03-15T03:49:38;100418.88;;;0.75;100.00
55610;BME280;41486;52.502;13.486;2023-03-15T03:52:06;100417.72;;;0.60;100.00
55610;BME280;41486;52.502;13.486;2023-03-15T03:54:35;100414.34;;;0.81;100.00
55610;BME280;41486;52.502;13.486;2023-03-15T03:57:03;100416.47;;;0.71;100.00
55610;BME280;41486;52.502;13.486;2023-03-15T03:59:34;100427.38;;;0.79;100.00
55610;BME280;41486;52.502;13.486;2023-03-15T04:02:04;100426.38;;;0.83;100.00
55610;BME280;41486;52.502;13.486;2023-03-15T04:04:33;100423.78;;;0.83;100.00
55610;BME280;41486;52.502;13.486;2023-03-15T04:07:04;100435.75;;;0.86;100.00
55610;BME280;41486;52.502;13.486;2023-03-15T04:09:35;100439.91;;;0.68;100.00
55610;BME280;41486;52.502;13.486;2023-03-15T04:12:05;100435.91;;;0.59;100.00
55610;BME280;41486;52.502;13.486;2023-03-15T04:14:34;100440.25;;;0.58;100.00
55610;BME280;41486;52.502;13.486;2023-03-15T04:17:06;100447.88;;;0.63;100.00
55610;BME280;41486;52.502;13.486;2023-03-15T04:19:34;100450.28;;;0.68;100.00
55610;BME280;41486;52.502;13.486;2023-03-15T04:22:06;100455.19;;;0.52;100.00
55610;BME280;41486;52.502;13.486;2023-03-15T04:24:57;100461.16;;;0.54;100.00
55610;BME280;41486;52.502;13.486;2023-03-15T04:27:56;100464.34;;;0.37;100.00
55610;BME280;41486;52.502;13.486;2023-03-15T04:30:54;100460.59;;;0.45;100.00
55610;BME280;41486;52.502;13.486;2023-03-15T04:33:42;100471.84;;;0.21;100.00
55610;BME280;41486;52.502;13.486;2023-03-15T04:36:16;100470.81;;;0.49;100.00
55610;BME280;41486;52.502;13.486;2023-03-15T04:39:09;100460.25;;;0.55;100.00
55610;BME280;41486;52.502;13.486;2023-03-15T04:41:57;100469.34;;;0.41;100.00
55610;BME280;41486;52.502;13.486;2023-03-15T04:44:34;100473.41;;;0.25;100.00
55610;BME280;41486;52.502;13.486;2023-03-15T04:47:12;100467.66;;;0.17;100.00
55610;BME280;41486;52.502;13.486;2023-03-15T04:50:07;100471.22;;;0.38;100.00
55610;BME280;41486;52.502;13.486;2023-03-15T04:52:48;100470.75;;;0.03;100.00
55610;BME280;41486;52.502;13.486;2023-03-15T04:55:36;100477.97;;;-0.07;100.00
55610;BME280;41486;52.502;13.486;2023-03-15T04:58:17;100483.94;;;-0.05;100.00
55610;BME280;41486;52.502;13.486;2023-03-15T05:00:46;100487.69;;;0.11;100.00
55610;BME280;41486;52.502;13.486;2023-03-15T05:03:32;100488.13;;;-0.01;100.00
55610;BME280;41486;52.502;13.486;2023-03-15T05:06:29;100495.75;;;0.04;100.00
55610;BME280;41486;52.502;13.486;2023-03-15T05:09:00;100497.22;;;0.11;100.00
55610;BME280;41486;52.502;13.486;2023-03-15T05:11:49;100496.25;;;-0.12;100.00
55610;BME280;41486;52.502;13.486;2023-03-15T05:14:49;100499.53;;;-0.07;100.00
55610;BME280;41486;52.502;13.486;2023-03-15T05:17:52;100508.44;;;-0.16;100.00
55610;BME280;41486;52.502;13.486;2023-03-15T05:20:38;100515.22;;;-0.11;100.00
55610;BME280;41486;52.502;13.486;2023-03-15T05:23:15;100525.69;;;0.11;100.00
55610;BME280;41486;52.502;13.486;2023-03-15T05:26:04;100534.13;;;0.16;100.00
55610;BME280;41486;52.502;13.486;2023-03-15T05:28:52;100528.50;;;0.03;100.00
55610;BME280;41486;52.502;13.486;2023-03-15T05:31:58;100544.31;;;0.21;100.00
55610;BME280;41486;52.502;13.486;2023-03-15T05:34:39;100545.28;;;0.17;100.00
55610;BME280;41486;52.502;13.486;2023-03-15T05:37:38;100546.16;;;0.17;100.00
55610;BME280;41486;52.502;13.486;2023-03-15T05:40:28;100547.41;;;0.30;100.00
55610;BME280;41486;52.502;13.486;2023-03-15T05:43:16;100564.78;;;0.27;100.00
55610;BME280;41486;52.502;13.486;2023-03-15T05:46:15;100568.13;;;0.30;100.00
55610;BME280;41486;52.502;13.486;2023-03-15T05:49:15;100566.63;;;0.49;100.00
55610;BME280;41486;52.502;13.486;2023-03-15T05:51:49;100572.28;;;0.60;100.00
55610;BME280;41486;52.502;13.486;2023-03-15T05:54:23;100579.97;;;0.61;100.00
55610;BME280;41486;52.502;13.486;2023-03-15T05:57:22;100582.47;;;0.65;100.00
55610;BME280;41486;52.502;13.486;2023-03-15T06:00:05;100590.91;;;0.70;100.00
55610;BME280;41486;52.502;13.486;2023-03-15T06:02:44;100593.66;;;0.89;100.00
55610;BME280;41486;52.502;13.486;2023-03-15T06:05:37;100601.44;;;0.89;100.00
55610;BME280;41486;52.502;13.486;2023-03-15T06:08:10;100601.59;;;0.84;100.00
55610;BME280;41486;52.502;13.486;2023-03-15T06:10:42;100609.28;;;0.87;100.00
55610;BME280;41486;52.502;13.486;2023-03-15T06:13:11;100609.16;;;1.14;100.00
55610;BME280;41486;52.502;13.486;2023-03-15T06:15:39;100616.22;;;1.33;100.00
55610;BME280;41486;52.502;13.486;2023-03-15T06:18:10;100614.72;;;1.27;100.00
55610;BME280;41486;52.502;13.486;2023-03-15T06:20:39;100622.56;;;1.48;100.00
55610;BME280;41486;52.502;13.486;2023-03-15T06:23:11;100622.94;;;1.38;100.00
55610;BME280;41486;52.502;13.486;2023-03-15T06:25:43;100630.50;;;1.21;100.00
55610;BME280;41486;52.502;13.486;2023-03-15T06:28:13;100642.97;;;1.11;100.00
55610;BME280;41486;52.502;13.486;2023-03-15T06:30:47;100639.78;;;1.26;100.00
55610;BME280;41486;52.502;13.486;2023-03-15T06:33:17;100643.44;;;1.21;100.00
55610;BME280;41486;52.502;13.486;2023-03-15T06:35:46;100651.13;;;1.24;100.00
55610;BME280;41486;52.502;13.486;2023-03-15T06:38:14;100655.25;;;1.30;100.00
55610;BME280;41486;52.502;13.486;2023-03-15T06:40:42;100660.91;;;1.39;100.00
55610;BME280;41486;52.502;13.486;2023-03-15T06:43:10;100672.09;;;1.41;100.00
55610;BME280;41486;52.502;13.486;2023-03-15T06:45:44;100672.13;;;1.16;100.00
55610;BME280;41486;52.502;13.486;2023-03-15T06:48:12;100673.72;;;1.20;100.00
55610;BME280;41486;52.502;13.486;2023-03-15T06:50:42;100683.53;;;1.12;100.00
55610;BME280;41486;52.502;13.486;2023-03-15T06:53:14;100679.72;;;1.22;100.00
55610;BME280;41486;52.502;13.486;2023-03-15T06:55:44;100679.41;;;1.06;100.00
55610;BME280;41486;52.502;13.486;2023-03-15T06:58:12;100690.81;;;1.26;100.00
55610;BME280;41486;52.502;13.486;2023-03-15T07:00:41;100687.25;;;1.29;100.00
55610;BME280;41486;52.502;13.486;2023-03-15T07:03:09;100693.72;;;1.40;100.00
55610;BME280;41486;52.502;13.486;2023-03-15T07:05:37;100696.31;;;1.40;100.00
55610;BME280;41486;52.502;13.486;2023-03-15T07:08:07;100692.16;;;1.60;100.00
55610;BME280;41486;52.502;13.486;2023-03-15T07:10:35;100702.38;;;1.63;100.00
55610;BME280;41486;52.502;13.486;2023-03-15T07:13:03;100694.44;;;1.90;100.00
55610;BME280;41486;52.502;13.486;2023-03-15T07:15:32;100696.97;;;1.92;100.00
55610;BME280;41486;52.502;13.486;2023-03-15T07:18:02;100701.34;;;1.91;100.00
55610;BME280;41486;52.502;13.486;2023-03-15T07:20:30;100703.78;;;1.94;100.00
55610;BME280;41486;52.502;13.486;2023-03-15T07:22:58;100701.69;;;2.04;100.00
55610;BME280;41486;52.502;13.486;2023-03-15T07:25:27;100694.31;;;2.15;100.00
55610;BME280;41486;52.502;13.486;2023-03-15T07:27:55;100695.75;;;2.23;100.00
55610;BME280;41486;52.502;13.486;2023-03-15T07:30:23;100701.97;;;2.18;100.00
55610;BME280;41486;52.502;13.486;2023-03-15T07:32:51;100703.16;;;2.32;100.00
55610;BME280;41486;52.502;13.486;2023-03-15T07:35:20;100703.44;;;2.46;100.00
55610;BME280;41486;52.502;13.486;2023-03-15T07:37:50;100700.72;;;2.49;100.00
55610;BME280;41486;52.502;13.486;2023-03-15T07:40:21;100711.41;;;2.42;100.00
55610;BME280;41486;52.502;13.486;2023-03-15T07:42:53;100706.91;;;2.25;100.00
55610;BME280;41486;52.502;13.486;2023-03-15T07:45:21;100713.81;;;2.26;100.00
55610;BME280;41486;52.502;13.486;2023-03-15T07:47:49;100718.94;;;2.27;100.00
55610;BME280;41486;52.502;13.486;2023-03-15T07:50:17;100720.97;;;2.41;100.00
55610;BME280;41486;52.502;13.486;2023-03-15T07:52:52;100719.53;;;2.34;100.00
55610;BME280;41486;52.502;13.486;2023-03-15T07:55:28;100729.19;;;2.30;100.00
55610;BME280;41486;52.502;13.486;2023-03-15T07:58:21;100730.84;;;2.53;100.00
55610;BME280;41486;52.502;13.486;2023-03-15T08:00:49;100739.09;;;2.43;100.00
55610;BME280;41486;52.502;13.486;2023-03-15T08:03:24;100739.69;;;2.27;100.00
55610;BME280;41486;52.502;13.486;2023-03-15T08:05:53;100736.28;;;2.47;100.00
55610;BME280;41486;52.502;13.486;2023-03-15T08:08:27;100753.53;;;2.71;100.00
55610;BME280;41486;52.502;13.486;2023-03-15T08:10:55;100741.75;;;2.62;100.00
55610;BME280;41486;52.502;13.486;2023-03-15T08:13:26;100753.59;;;2.69;100.00
55610;BME280;41486;52.502;13.486;2023-03-15T08:15:54;100749.56;;;2.62;100.00
55610;BME280;41486;52.502;13.486;2023-03-15T08:18:22;100756.72;;;2.57;100.00
55610;BME280;41486;52.502;13.486;2023-03-15T08:20:50;100755.81;;;2.58;100.00
55610;BME280;41486;52.502;13.486;2023-03-15T08:23:18;100755.63;;;2.62;100.00
55610;BME280;41486;52.502;13.486;2023-03-15T08:25:48;100765.81;;;2.67;100.00
55610;BME280;41486;52.502;13.486;2023-03-15T08:28:16;100760.75;;;2.64;100.00
55610;BME280;41486;52.502;13.486;2023-03-15T08:30:45;100756.97;;;2.71;100.00
55610;BME280;41486;52.502;13.486;2023-03-15T08:33:13;100776.59;;;2.58;100.00
55610;BME280;41486;52.502;13.486;2023-03-15T08:35:47;100766.19;;;2.58;100.00
55610;BME280;41486;52.502;13.486;2023-03-15T08:38:19;100763.22;;;2.67;100.00
55610;BME280;41486;52.502;13.486;2023-03-15T08:40:47;100777.38;;;2.60;100.00
55610;BME280;41486;52.502;13.486;2023-03-15T08:43:15;100780.34;;;2.71;100.00
55610;BME280;41486;52.502;13.486;2023-03-15T08:45:44;100785.44;;;2.74;100.00
55610;BME280;41486;52.502;13.486;2023-03-15T08:48:26;100792.44;;;2.51;100.00
55610;BME280;41486;52.502;13.486;2023-03-15T08:50:55;100787.59;;;2.64;100.00
55610;BME280;41486;52.502;13.486;2023-03-15T08:53:24;100801.06;;;2.73;100.00
55610;BME280;41486;52.502;13.486;2023-03-15T08:55:52;100810.63;;;2.72;100.00
55610;BME280;41486;52.502;13.486;2023-03-15T08:58:20;100796.28;;;2.84;100.00
55610;BME280;41486;52.502;13.486;2023-03-15T09:00:49;100816.06;;;2.88;100.00
55610;BME280;41486;52.502;13.486;2023-03-15T09:03:18;100819.56;;;2.87;100.00
55610;BME280;41486;52.502;13.486;2023-03-15T09:05:48;100814.94;;;2.73;97.53
55610;BME280;41486;52.502;13.486;2023-03-15T09:08:16;100814.59;;;2.81;100.00
55610;BME280;41486;52.502;13.486;2023-03-15T09:10:46;100819.38;;;2.92;100.00
55610;BME280;41486;52.502;13.486;2023-03-15T09:13:15;100829.91;;;2.89;100.00
55610;BME280;41486;52.502;13.486;2023-03-15T09:15:43;100836.13;;;2.84;100.00
55610;BME280;41486;52.502;13.486;2023-03-15T09:18:12;100838.41;;;2.92;100.00
55610;BME280;41486;52.502;13.486;2023-03-15T09:20:40;100829.25;;;3.04;100.00
55610;BME280;41486;52.502;13.486;2023-03-15T09:23:08;100838.41;;;3.13;100.00
55610;BME280;41486;52.502;13.486;2023-03-15T09:25:36;100842.78;;;3.12;100.00
55610;BME280;41486;52.502;13.486;2023-03-15T09:28:06;100847.88;;;3.15;100.00
55610;BME280;41486;52.502;13.486;2023-03-15T09:30:36;100846.88;;;3.18;100.00
55610;BME280;41486;52.502;13.486;2023-03-15T09:33:05;100850.28;;;3.20;100.00
55610;BME280;41486;52.502;13.486;2023-03-15T09:35:34;100859.03;;;3.18;96.74
55610;BME280;41486;52.502;13.486;2023-03-15T09:38:02;100855.91;;;3.30;97.86
55610;BME280;41486;52.502;13.486;2023-03-15T09:40:31;100863.25;;;3.41;99.34
55610;BME280;41486;52.502;13.486;2023-03-15T09:43:15;100873.03;;;3.36;96.21
55610;BME280;41486;52.502;13.486;2023-03-15T09:45:58;100881.47;;;3.20;95.25
55610;BME280;41486;52.502;13.486;2023-03-15T09:48:31;100883.84;;;3.04;95.85
55610;BME280;41486;52.502;13.486;2023-03-15T09:51:05;100880.25;;;3.08;94.62
55610;BME280;41486;52.502;13.486;2023-03-15T09:53:38;100879.72;;;3.00;95.38
55610;BME280;41486;52.502;13.486;2023-03-15T09:56:19;100889.66;;;3.11;94.92
55610;BME280;41486;52.502;13.486;2023-03-15T09:58:51;100877.31;;;3.16;94.14
55610;BME280;41486;52.502;13.486;2023-03-15T10:01:24;100895.44;;;3.18;94.35
55610;BME280;41486;52.502;13.486;2023-03-15T10:03:55;100893.59;;;2.99;92.55
55610;BME280;41486;52.502;13.486;2023-03-15T10:06:28;100894.47;;;3.20;92.91
55610;BME280;41486;52.502;13.486;2023-03-15T10:09:09;100894.13;;;3.48;94.00
55610;BME280;41486;52.502;13.486;2023-03-15T10:11:44;100906.25;;;3.50;88.35
55610;BME280;41486;52.502;13.486;2023-03-15T10:14:22;100908.28;;;3.43;87.81
55610;BME280;41486;52.502;13.486;2023-03-15T10:16:54;100904.63;;;3.47;88.05
55610;BME280;41486;52.502;13.486;2023-03-15T10:19:27;100906.31;;;3.48;86.58
55610;BME280;41486;52.502;13.486;2023-03-15T10:22:03;100905.03;;;3.58;86.38
55610;BME280;41486;52.502;13.486;2023-03-15T10:24:42;100904.13;;;3.59;86.08
55610;BME280;41486;52.502;13.486;2023-03-15T10:27:16;100908.41;;;3.60;87.66
55610;BME280;41486;52.502;13.486;2023-03-15T10:29:47;100910.78;;;3.65;86.87
55610;BME280;41486;52.502;13.486;2023-03-15T10:32:19;100914.22;;;3.86;88.78
55610;BME280;41486;52.502;13.486;2023-03-15T10:34:51;100919.44;;;4.05;86.15
55610;BME280;41486;52.502;13.486;2023-03-15T10:37:22;100908.19;;;3.65;84.71
55610;BME280;41486;52.502;13.486;2023-03-15T10:39:54;100924.31;;;3.73;87.62
55610;BME280;41486;52.502;13.486;2023-03-15T10:42:27;100923.53;;;3.92;86.40
55610;BME280;41486;52.502;13.486;2023-03-15T10:44:57;100916.22;;;4.00;88.11
55610;BME280;41486;52.502;13.486;2023-03-15T10:47:26;100920.63;;;3.98;84.83
55610;BME280;41486;52.502;13.486;2023-03-15T10:49:56;100927.53;;;3.99;81.19
55610;BME280;41486;52.502;13.486;2023-03-15T10:52:32;100923.13;;;4.01;83.07
55610;BME280;41486;52.502;13.486;2023-03-15T10:55:06;100918.31;;;4.32;83.09
55610;BME280;41486;52.502;13.486;2023-03-15T10:57:40;100931.91;;;3.99;81.05
55610;BME280;41486;52.502;13.486;2023-03-15T11:00:22;100915.81;;;4.09;83.16
55610;BME280;41486;52.502;13.486;2023-03-15T11:03:01;100916.00;;;4.05;84.72
55610;BME280;41486;52.502;13.486;2023-03-15T11:05:30;100933.66;;;3.98;82.43
55610;BME280;41486;52.502;13.486;2023-03-15T11:08:00;100926.16;;;4.11;85.37
55610;BME280;41486;52.502;13.486;2023-03-15T11:10:32;100932.16;;;4.13;82.70
55610;BME280;41486;52.502;13.486;2023-03-15T11:13:18;100928.47;;;4.17;85.49
55610;BME280;41486;52.502;13.486;2023-03-15T11:15:54;100926.09;;;4.13;84.09
55610;BME280;41486;52.502;13.486;2023-03-15T11:18:31;100928.31;;;4.01;84.69
55610;BME280;41486;52.502;13.486;2023-03-15T11:21:04;100939.47;;;4.05;84.25
55610;BME280;41486;52.502;13.486;2023-03-15T11:23:36;100935.44;;;3.77;85.94
55610;BME280;41486;52.502;13.486;2023-03-15T11:26:07;100934.34;;;4.22;84.93
55610;BME280;41486;52.502;13.486;2023-03-15T11:28:46;100936.56;;;4.11;81.36
55610;BME280;41486;52.502;13.486;2023-03-15T11:31:15;100931.25;;;4.14;79.28
55610;BME280;41486;52.502;13.486;2023-03-15T11:33:47;100922.56;;;4.33;79.69
55610;BME280;41486;52.502;13.486;2023-03-15T11:36:20;100930.13;;;4.39;80.71
55610;BME280;41486;52.502;13.486;2023-03-15T11:38:50;100929.81;;;4.64;76.65
55610;BME280;41486;52.502;13.486;2023-03-15T11:41:26;100925.00;;;4.74;77.12
55610;BME280;41486;52.502;13.486;2023-03-15T11:44:02;100925.28;;;4.87;78.11
55610;BME280;41486;52.502;13.486;2023-03-15T11:46:36;100929.59;;;4.69;77.95
55610;BME280;41486;52.502;13.486;2023-03-15T11:49:12;100923.97;;;4.78;77.52
55610;BME280;41486;52.502;13.486;2023-03-15T11:51:42;100934.53;;;4.75;76.22
55610;BME280;41486;52.502;13.486;2023-03-15T11:54:14;100943.00;;;4.98;73.83
55610;BME280;41486;52.502;13.486;2023-03-15T11:56:52;100941.88;;;5.03;74.37
55610;BME280;41486;52.502;13.486;2023-03-15T11:59:23;100933.22;;;5.03;73.48
55610;BME280;41486;52.502;13.486;2023-03-15T12:01:55;100933.09;;;5.59;72.50
55610;BME280;41486;52.502;13.486;2023-03-15T12:04:48;100940.50;;;5.84;69.80
55610;BME280;41486;52.502;13.486;2023-03-15T12:07:55;100936.38;;;5.62;70.70
55610;BME280;41486;52.502;13.486;2023-03-15T12:10:42;100930.25;;;5.63;70.73
55610;BME280;41486;52.502;13.486;2023-03-15T12:13:18;100934.16;;;5.19;71.53
55610;BME280;41486;52.502;13.486;2023-03-15T12:15:56;100935.53;;;5.09;71.90
55610;BME280;41486;52.502;13.486;2023-03-15T12:18:31;100936.50;;;5.94;68.55
55610;BME280;41486;52.502;13.486;2023-03-15T12:21:11;100939.47;;;6.70;67.68
55610;BME280;41486;52.502;13.486;2023-03-15T12:23:44;100950.81;;;8.07;54.32
55610;BME280;41486;52.502;13.486;2023-03-15T12:26:35;100941.59;;;10.67;47.07
55610;BME280;41486;52.502;13.486;2023-03-15T12:29:11;100939.72;;;11.64;47.28
55610;BME280;41486;52.502;13.486;2023-03-15T12:31:57;100937.13;;;12.33;44.06
55610;BME280;41486;52.502;13.486;2023-03-15T12:34:41;100944.03;;;12.68;41.08
55610;BME280;41486;52.502;13.486;2023-03-15T12:37:14;100946.66;;;10.07;47.16
55610;BME280;41486;52.502;13.486;2023-03-15T12:39:46;100946.31;;;7.49;52.17
55610;BME280;41486;52.502;13.486;2023-03-15T12:45:39;100959.97;;;11.28;46.63
55610;BME280;41486;52.502;13.486;2023-03-15T12:48:33;100958.72;;;9.71;47.77
55610;BME280;41486;52.502;13.486;2023-03-15T12:51:09;100965.09;;;9.00;52.13
55610;BME280;41486;52.502;13.486;2023-03-15T12:53:47;100964.00;;;7.15;55.24
55610;BME280;41486;52.502;13.486;2023-03-15T12:56:33;100961.94;;;8.10;54.65
55610;BME280;41486;52.502;13.486;2023-03-15T12:59:11;100969.06;;;9.87;48.48
55610;BME280;41486;52.502;13.486;2023-03-15T13:01:42;100959.22;;;6.59;53.65
55610;BME280;41486;52.502;13.486;2023-03-15T13:04:14;100983.13;;;9.73;46.38
55610;BME280;41486;52.502;13.486;2023-03-15T13:06:57;100966.63;;;8.48;47.17
55610;BME280;41486;52.502;13.486;2023-03-15T13:09:41;100968.09;;;8.67;50.93
55610;BME280;41486;52.502;13.486;2023-03-15T13:12:18;100968.63;;;10.45;43.63
55610;BME280;41486;52.502;13.486;2023-03-15T13:14:52;100968.28;;;10.86;41.06
55610;BME280;41486;52.502;13.486;2023-03-15T13:17:32;100964.13;;;9.95;41.49
55610;BME280;41486;52.502;13.486;2023-03-15T13:20:12;100966.66;;;9.03;43.23